Monday, May 2, 2016, 9:05 PM EDT

KRIC, Richmond International Airport

Location: Sandston, VA, United States Lat: 37.517
Local Time: 9:05 PM EDT ( 1:05 GMT) Lon: -77.317
Time Zone: US/Eastern Elev: 167 ft

Show me the last for .
Show Decoded

2016-05-02 20:54 METAR KRIC 030054Z 15007KT 10SM -RA SCT040 BKN055 BKN100 OVC150 21/19 A2985 RMK
                 AO2 RAB2359E16B51 SLP112 OCNL LTGIC NW-NE P0001 T02110189 =
2016-05-02 19:54 METAR KRIC 022354Z 16008KT 10SM SCT050CB SCT100 BKN150 OVC250 23/18 A2985 RMK
                 AO2 SLP111 OCNL LTGICCC SW CB SW MOV NE T02280178 10294 20228 50002 =
2016-05-02 18:54 METAR KRIC 022254Z 17007KT 10SM SCT050 SCT100 BKN150 OVC250 25/18 A2985 RMK AO2
                 SLP112 CB DSNT SE T02500183 =
2016-05-02 17:54 METAR KRIC 022154Z 30007KT 10SM SCT060 SCT100 BKN250 26/18 A2984 RMK AO2
                 TSB19E50 SLP110 CB DSNT NE AND SE T02560178 =
2016-05-02 17:25 METAR KRIC 022125Z 20006KT 10SM TS SCT070CB BKN100 BKN250 27/18 A2984 RMK AO2
                 TSB19 OCNL LTGIC NW TS NW MOV NE T02670183 =
2016-05-02 16:54 METAR KRIC 022054Z 19008KT 10SM SCT055 SCT100 BKN250 28/17 A2984 RMK AO2 SLP109
                 CB DSNT S T02780172 56023 =
2016-05-02 15:54 METAR KRIC 021954Z 22007KT 10SM SCT055 SCT250 29/17 A2986 RMK AO2 SLP116
                 T02890172 =
2016-05-02 14:54 METAR KRIC 021854Z 22011KT 200V260 10SM SCT046 SCT250 28/18 A2989 RMK AO2 SLP124
                 T02830178 =
2016-05-02 13:54 METAR KRIC 021754Z 21011KT 10SM FEW037 SCT250 27/19 A2991 RMK AO2 SLP132
                 T02720189 10272 20183 58021 =
2016-05-02 12:54 METAR KRIC 021654Z 22008KT 10SM SCT027 26/19 A2994 RMK AO2 SLP140 T02610189 =
2016-05-02 12:29 METAR KRIC 021629Z 20008KT 10SM SCT023 25/19 A2995 =
2016-05-02 11:54 METAR KRIC 021554Z 23008KT 190V260 10SM BKN022 24/19 A2996 RMK AO2 SLP149
                 T02390189 =
2016-05-02 10:54 METAR KRIC 021454Z 22008KT 7SM BKN020 22/19 A2997 RMK AO2 SLP153 T02220189 50004
                 =
2016-05-02 10:26 METAR KRIC 021426Z 25006KT 6SM BR OVC015 21/19 A2998 RMK AO2 T02110189 =
2016-05-02 09:54 METAR KRIC 021354Z 24005KT 6SM BR BKN011 BKN016 OVC021 21/19 A2998 RMK AO2
                 SLP154 T02060189 =
2016-05-02 08:54 METAR KRIC 021254Z 22003KT 4SM BR OVC006 19/18 A2997 RMK AO2 SLP151 T01940183 =
2016-05-02 08:32 METAR KRIC 021232Z 23004KT 3SM BR OVC006 19/18 A2996 RMK AO2 T01890183 =
2016-05-02 07:54 METAR KRIC 021154Z 25004KT 2 1/2SM BR OVC005 18/18 A2996 RMK AO2 CIG 004V008
                 SLP149 60002 70049 T01830178 10183 20167 53011 =
2016-05-02 07:23 METAR KRIC 021123Z 26004KT 2 1/2SM BR OVC005 18/17 A2996 RMK AO2 T01780172 =
2016-05-02 06:54 METAR KRIC 021054Z 23004KT 9SM BKN006 OVC013 18/17 A2995 RMK AO2 SLP144
                 T01780172 =
2016-05-02 06:47 METAR KRIC 021047Z 22006KT 9SM BKN006 OVC013 18/17 A2994 RMK AO2 T01780172 =
2016-05-02 05:54 METAR KRIC 020954Z 19003KT 6SM BR SCT006 BKN013 17/17 A2993 RMK AO2 SLP138
                 T01670167 =
2016-05-02 05:30 METAR KRIC 020930Z 20005KT 7SM SCT006 BKN013 17/17 A2993 RMK AO2 T01670167 =
2016-05-02 05:17 METAR KRIC 020917Z 20007KT 9SM BKN013 17/17 A2993 RMK AO2 T01720172 =
2016-05-02 04:54 METAR KRIC 020854Z 20007KT 10SM SCT110 SCT250 17/17 A2993 RMK AO2 SLP140 60002
                 T01720167 56017 =
2016-05-02 03:54 METAR KRIC 020754Z 00000KT 10SM SCT055 BKN110 17/17 A2994 RMK AO2 RAB13E27
                 SLP142 P0000 T01670167 =
2016-05-02 02:54 METAR KRIC 020654Z 18004KT 10SM FEW004 FEW090 BKN110 17/17 A2995 RMK AO2 RAE22
                 TSE12 SLP147 P0002 T01670167 =
2016-05-02 02:35 METAR KRIC 020635Z 16007KT 6SM BR FEW004 SCT090 BKN110 17/16 A2995 RMK AO2 RAE22
                 TSE12 P0002 T01670161 =
2016-05-02 02:18 METAR KRIC 020618Z 07006KT 3SM -RA BR FEW070 SCT085 BKN110 17/17 A2994 RMK AO2
                 TSE12 P0002 T01670167 =
2016-05-02 01:54 METAR KRIC 020554Z 36004KT 3/4SM R34/P6000FT TSRA BR FEW007 OVC018CB 17/17 A2998
                 RMK AO2 SLP157 OCNL LTGCGCC S TS OHD MOV NE P0026 60026 T01720167 10183 20167
                 58003 =
2016-05-02 00:54 METAR KRIC 020454Z COR 03004KT 1/4SM R34/3000V5000FT -TSRA FG BKN002 OVC022CB
                 17/17 A2998 RMK AO2 RAB52 TSB45 SLP158 OCNL LTGCGCC NW TS NW MOV NE P0000
                 T01720172 401940111 =
2016-05-02 00:51 METAR KRIC 020451Z 02004KT 1/4SM R34/2800V5000FT TS FG VV002 17/17 A2999 RMK AO2
                 TSB45 OCNL LTGCGCC NW TS NW MOV NE =
2016-05-01 23:54 METAR KRIC 020354Z 06004KT 3/4SM R34/4500V5500FT BR OVC002 17/17 A2999 RMK AO2
                 SLP160 T01720172 =
2016-05-01 23:28 METAR KRIC 020328Z 11004KT 1SM R34/P6000FT BR OVC002 17/17 A2999 RMK AO2
                 T01720167 =
2016-05-01 23:07 METAR KRIC 020307Z 11003KT 1 3/4SM BR OVC002 17/17 A3000 RMK AO2 T01720172 =
2016-05-01 22:54 METAR KRIC 020254Z 07003KT 2 1/2SM BR OVC002 17/17 A3000 RMK AO2 SLP164
                 T01720172 50006 =
2016-05-01 21:54 METAR KRIC 020154Z 06003KT 3SM BR BKN003 OVC035 18/17 A3002 RMK AO2 SLP170
                 T01780172 =

Support USWX by starting your Amazon purchase here.